Halifax, Nova Scotia

9:36 AM AST on February 12, 2016 (GMT -0400)
Halifax International | | Change Station
CLOSE
Current Station
Airport
Location: Halifax,
Elevation: 476 ft
Nearby Weather Stations

Elev 476 ft 44.88 °N, 63.51 °W | Updated 2 minutes ago

Light Snow Showers
Light Showers Snow
16 °F
Feels Like 1 °F
N
15
Wind Variable Wind from West

Today is forecast to be nearly the same temperature as yesterday.

Today
High -- | Low -- °F
--% Chance of Precip.
Yesterday
High -- | Low -- °F
Precip. -- in
Pressure 29.85 in
Visibility 1.5 miles
Clouds Overcast 2400 ft
Windchill 1 °F
Dew Point 10 °F
Humidity 79%
Rainfall 0.00 in
Snow Depth Not available.
7:19 AM 5:37 PM
Waxing Crescent, 20% visible
SPECI CYHZ 121334Z 27013KT 1 1/2SM -SHSN OVC024 M09/M12 A2982 RMK SC8 SLP107
Pressure 29.85 in
Visibility 1.5 miles
Clouds Overcast 2400 ft
Windchill 1 °F
Dew Point 10 °F
Humidity 79%
Rainfall 0.00 in
Snow Depth Not available.
7:19 AM 5:37 PM
Waxing Crescent, 20% visible
SPECI CYHZ 121334Z 27013KT 1 1/2SM -SHSN OVC024 M09/M12 A2982 RMK SC8 SLP107

10-Day Weather Forecast

Almanac

Astronomy

Feb. 12, 2016 Rise Set
Actual Time
Civil Twilight
Nautical Twilight
Astronomical Twilight
Moon
Length of Visible Light
Length of Day
Tomorrow will be .
, % of the Moon is Illuminated

Today's Extremes

Country Highs Country Lows

Community

WunderPhotos

Upload Photos

1,892,312 photos uploaded!

WunderBlog® & News

Nearby

Air Quality

  Air Quality AQ Index Pollutant
Not available.

Snow Depth

Station Depth Elevation

Earthquake Activity

City Distance Mag. Time & Date
Minimum magnitude displayed is 2.5.

Coastal Water Temperatures

Place Temperature

Stations

Nearby Weather Stations

Station Location Temp. Windchill Dew Point Humidity Wind Precip. Elev Updated Type
                   

Watches & Warnings

There are currently no watches in effect.